Belle Vernon, Ohio
Current Conditions -  °F | °C
As of 8:20 PM on Thursday 27 Nov 2014 (Local Time) from KMNN Reporting Station
Overcast Overcast  
Wind Chill: 20°   Ceiling: 2800
Heat Index: 30°   Visibility: 9mi
Dew Point: 23°   Wind: 14mph
Humidity: 75%   Direction: 280°W
Pressure: 30.28"   Gusts: 22mph
Location:  40.948°N, 83.1346°W
Report Text: KMNN 280120Z AUTO 28012G19KT 9SM SCT018 BKN028 OVC055 M01/M05 A3028 RMK AO2 T10111050 TSNO
Loading
Personal Weather Stations






























Interactive Weather Map New forecast layout! Learn more

10-Day Weather Forecast

Advertisements
Track Severe Weather on mobile